Time;durP1;ratioP1;P1;durP2;ratioP2;P2;SDS_P1;SDS_P2;PMS_P1;PMS_P2;Temp;Humidity;BMP_temperature;BMP_pressure;BME280_temperature;BME280_humidity;BME280_pressure;Samples;Min_cycle;Max_cycle;Signal;HPM_P1;HPM_P2
2023/07/16 00:01:30;;;;;;;8.70;7.30;;;;;;;17.05;100.00;97529.30;110255;1242;69270;-65
2023/07/16 00:04:01;;;;;;;7.90;6.30;;;;;;;17.04;100.00;97528.83;110204;1242;69888;-64
2023/07/16 00:06:31;;;;;;;8.20;6.80;;;;;;;17.04;100.00;97531.14;110238;1242;59660;-63
2023/07/16 00:09:03;;;;;;;7.60;6.90;;;;;;;17.02;100.00;97531.00;110235;1241;59754;-64
2023/07/16 00:11:33;;;;;;;8.90;7.10;;;;;;;16.97;100.00;97532.41;110239;1242;70524;-64
2023/07/16 00:14:04;;;;;;;8.10;7.30;;;;;;;16.93;100.00;97531.40;110216;1241;68497;-64
2023/07/16 00:16:33;;;;;;;7.90;7.00;;;;;;;16.88;100.00;97524.97;110221;1241;69453;-64
2023/07/16 00:19:04;;;;;;;8.80;7.50;;;;;;;16.86;100.00;97528.59;110185;1242;59673;-64
2023/07/16 00:21:35;;;;;;;10.30;8.30;;;;;;;16.83;100.00;97527.59;110232;1242;59675;-65
2023/07/16 00:24:08;;;;;;;9.60;7.80;;;;;;;16.81;100.00;97524.78;110247;1241;71498;-64
2023/07/16 00:26:40;;;;;;;8.30;7.20;;;;;;;16.78;100.00;97523.77;110264;1242;69266;-63
2023/07/16 00:29:14;;;;;;;8.30;6.80;;;;;;;16.77;100.00;97519.38;110257;1242;69287;-64
2023/07/16 00:31:45;;;;;;;9.30;7.20;;;;;;;16.74;100.00;97520.75;110247;1243;60055;-64
2023/07/16 00:34:15;;;;;;;7.70;6.70;;;;;;;16.70;100.00;97519.98;110275;1242;59643;-66
2023/07/16 00:36:48;;;;;;;9.30;7.30;;;;;;;16.66;100.00;97514.97;110201;1242;70489;-66
2023/07/16 00:39:18;;;;;;;8.50;7.60;;;;;;;16.61;100.00;97514.16;110209;1240;68399;-64
2023/07/16 00:41:50;;;;;;;9.00;7.50;;;;;;;16.57;100.00;97510.55;110162;1246;69304;-66
2023/07/16 00:44:20;;;;;;;9.00;7.20;;;;;;;16.51;100.00;97507.88;110333;1241;59699;-65
2023/07/16 00:46:51;;;;;;;7.70;6.90;;;;;;;16.48;100.00;97505.41;110343;1242;59653;-65
2023/07/16 00:49:21;;;;;;;8.50;7.00;;;;;;;16.43;100.00;97503.62;110203;1245;70440;-65
2023/07/16 00:51:56;;;;;;;6.20;5.50;;;;;;;16.39;100.00;97503.43;110312;1241;68699;-66
2023/07/16 00:54:31;;;;;;;11.00;7.90;;;;;;;16.37;100.00;97497.70;110330;1242;69267;-64
2023/07/16 00:57:01;;;;;;;10.80;8.50;;;;;;;16.35;100.00;97499.48;110275;1242;59661;-67
2023/07/16 00:59:33;;;;;;;9.10;8.00;;;;;;;16.33;100.00;97499.44;110187;1243;59711;-65
2023/07/16 01:02:04;;;;;;;8.80;7.40;;;;;;;16.32;100.00;97494.09;110304;1249;71417;-65
2023/07/16 01:04:37;;;;;;;11.50;8.60;;;;;;;16.33;100.00;97495.09;110315;1249;67520;-65
2023/07/16 01:07:13;;;;;;;9.80;8.40;;;;;;;16.33;100.00;97496.37;110298;1243;69300;-65
2023/07/16 01:09:46;;;;;;;9.80;7.70;;;;;;;16.31;100.00;97493.47;110319;1242;59699;-66
2023/07/16 01:12:21;;;;;;;9.80;8.00;;;;;;;16.29;100.00;97493.25;110359;1243;59679;-66
2023/07/16 01:14:54;;;;;;;8.00;6.80;;;;;;;16.27;100.00;97491.52;110346;1245;70674;-66
2023/07/16 01:17:26;;;;;;;7.60;6.80;;;;;;;16.24;100.00;97491.61;110265;1242;69272;-64
2023/07/16 01:20:01;;;;;;;8.40;6.50;;;;;;;16.22;100.00;97491.54;110234;1245;69426;-66
2023/07/16 01:23:12;;;;;;;8.20;6.40;;;;;;;16.18;100.00;97490.66;110250;1241;59663;-65
2023/07/16 01:26:06;;;;;;;8.00;6.80;;;;;;;16.15;100.00;97489.23;110257;1241;59752;-64
2023/07/16 01:29:07;;;;;;;8.40;7.30;;;;;;;16.13;100.00;97485.86;110327;1241;71333;-64
2023/07/16 01:31:46;;;;;;;8.00;6.30;;;;;;;16.11;100.00;97485.39;110303;1240;68416;-66
2023/07/16 01:34:19;;;;;;;9.60;7.30;;;;;;;16.07;100.00;97486.06;110268;1243;68357;-64
2023/07/16 01:36:50;;;;;;;8.70;7.40;;;;;;;16.04;100.00;97487.96;110189;1245;59666;-66
2023/07/16 01:39:21;;;;;;;8.60;7.00;;;;;;;16.00;100.00;97487.98;110324;1242;59640;-64
2023/07/16 01:41:51;;;;;;;8.80;7.20;;;;;;;15.97;100.00;97484.25;110278;1242;71378;-64
2023/07/16 01:44:24;;;;;;;8.40;7.50;;;;;;;15.95;100.00;97486.00;110339;1242;69250;-65
2023/07/16 01:47:19;;;;;;;8.10;7.30;;;;;;;15.92;100.00;97484.30;110113;1244;69876;-65
2023/07/16 01:49:50;;;;;;;10.30;8.10;;;;;;;15.90;100.00;97481.67;110265;1242;59755;-65
2023/07/16 01:52:21;;;;;;;8.30;6.70;;;;;;;15.89;100.00;97482.17;110316;1242;59731;-64
2023/07/16 01:54:51;;;;;;;7.40;6.40;;;;;;;15.87;100.00;97481.52;110190;1245;72077;-64
2023/07/16 01:57:24;;;;;;;7.70;6.00;;;;;;;15.83;100.00;97478.65;110287;1242;68614;-66
2023/07/16 01:59:59;;;;;;;6.60;5.90;;;;;;;15.81;100.00;97480.63;110224;1245;68552;-65
2023/07/16 02:02:35;;;;;;;6.60;6.00;;;;;;;15.78;100.00;97475.74;110287;1242;59747;-64
2023/07/16 02:05:17;;;;;;;7.10;5.90;;;;;;;15.75;100.00;97477.27;110193;1244;59702;-64
2023/07/16 02:07:59;;;;;;;8.40;6.60;;;;;;;15.72;100.00;97480.53;110133;1244;71048;-65
2023/07/16 02:10:37;;;;;;;7.80;6.70;;;;;;;15.71;100.00;97482.41;110184;1241;68404;-64
2023/07/16 02:13:17;;;;;;;7.80;6.30;;;;;;;15.68;100.00;97480.96;110321;1242;69217;-65
2023/07/16 02:15:51;;;;;;;8.60;6.40;;;;;;;15.67;100.00;97485.98;110172;1243;59808;-65
2023/07/16 02:18:26;;;;;;;6.90;6.20;;;;;;;15.66;100.00;97485.56;110325;1241;59719;-65
2023/07/16 02:20:56;;;;;;;7.00;6.30;;;;;;;15.62;100.00;97484.94;110349;1240;71484;-67
2023/07/16 02:23:27;;;;;;;9.20;6.30;;;;;;;15.59;100.00;97485.27;110324;1242;69264;-65
2023/07/16 02:25:58;;;;;;;7.30;6.30;;;;;;;15.55;100.00;97489.81;110168;1245;69338;-64
2023/07/16 02:28:29;;;;;;;7.10;5.80;;;;;;;15.52;100.00;97492.17;110308;1241;59667;-66
2023/07/16 02:31:00;;;;;;;8.30;6.30;;;;;;;15.50;100.00;97491.73;110323;1242;59730;-65
2023/07/16 02:33:30;;;;;;;8.10;6.60;;;;;;;15.46;100.00;97495.38;110341;1240;71391;-65
2023/07/16 02:36:00;;;;;;;7.90;6.20;;;;;;;15.45;100.00;97498.19;110217;1244;69235;-66
2023/07/16 02:38:34;;;;;;;8.10;6.60;;;;;;;15.43;100.00;97498.14;110259;1242;69363;-65
2023/07/16 02:41:06;;;;;;;6.20;5.60;;;;;;;15.40;100.00;97498.24;110111;1243;59661;-65
2023/07/16 02:43:38;;;;;;;7.20;6.30;;;;;;;15.37;100.00;97497.79;110348;1240;59692;-65
2023/07/16 02:46:10;;;;;;;7.60;6.80;;;;;;;15.37;100.00;97499.42;110361;1242;71405;-65
2023/07/16 02:48:43;;;;;;;7.70;6.60;;;;;;;15.34;100.00;97500.02;110337;1242;69164;-66
2023/07/16 02:51:15;;;;;;;7.60;6.70;;;;;;;15.32;100.00;97497.90;110291;1242;69260;-65
2023/07/16 02:53:46;;;;;;;9.90;6.30;;;;;;;15.30;100.00;97498.05;110167;1242;59777;-65
2023/07/16 02:56:17;;;;;;;6.80;6.10;;;;;;;15.29;100.00;97500.61;110272;1242;59633;-65
2023/07/16 02:58:47;;;;;;;7.70;6.70;;;;;;;15.28;100.00;97500.70;110221;1242;71324;-66
2023/07/16 03:01:19;;;;;;;9.00;6.50;;;;;;;15.28;100.00;97502.39;110179;1241;68253;-64
2023/07/16 03:03:50;;;;;;;9.30;6.90;;;;;;;15.27;100.00;97501.64;110170;1241;69270;-63
2023/07/16 03:06:24;;;;;;;7.30;6.50;;;;;;;15.27;100.00;97502.56;110252;1242;59724;-64
2023/07/16 03:08:54;;;;;;;6.30;5.70;;;;;;;15.27;100.00;97505.92;110273;1242;59670;-65
2023/07/16 03:11:25;;;;;;;6.70;4.90;;;;;;;15.27;100.00;97508.73;110061;1245;70826;-66
2023/07/16 03:13:57;;;;;;;7.10;6.20;;;;;;;15.28;100.00;97513.34;110228;1242;69029;-65
2023/07/16 03:16:30;;;;;;;7.50;6.70;;;;;;;15.28;100.00;97516.84;110269;1241;68418;-64
2023/07/16 03:19:01;;;;;;;7.00;5.90;;;;;;;15.31;100.00;97520.70;110195;1245;59694;-65
2023/07/16 03:21:33;;;;;;;8.50;6.90;;;;;;;15.32;100.00;97522.14;110321;1242;59692;-64
2023/07/16 03:24:04;;;;;;;6.90;6.20;;;;;;;15.35;100.00;97521.52;110299;1241;71237;-65
2023/07/16 03:26:34;;;;;;;8.00;6.60;;;;;;;15.38;100.00;97519.87;110297;1242;69118;-65
2023/07/16 03:29:05;;;;;;;6.20;5.60;;;;;;;15.42;100.00;97517.89;110160;1243;69333;-64
2023/07/16 03:31:37;;;;;;;6.30;5.60;;;;;;;15.46;100.00;97518.41;110274;1241;59771;-64
2023/07/16 03:34:07;;;;;;;7.50;5.60;;;;;;;15.50;100.00;97521.55;110188;1240;59742;-64
2023/07/16 03:36:38;;;;;;;6.90;6.10;;;;;;;15.54;100.00;97522.27;110169;1240;71201;-64
2023/07/16 03:39:11;;;;;;;9.00;7.10;;;;;;;15.57;100.00;97519.20;110257;1240;68555;-65
2023/07/16 03:41:42;;;;;;;7.00;6.20;;;;;;;15.57;100.00;97517.02;108828;1242;1924153;-65
2023/07/16 03:44:13;;;;;;;9.60;7.00;;;;;;;15.58;100.00;97520.80;110151;1249;59727;-64
2023/07/16 03:46:43;;;;;;;7.20;6.20;;;;;;;15.61;100.00;97520.87;110152;1243;59694;-64
2023/07/16 03:49:14;;;;;;;6.90;6.10;;;;;;;15.65;100.00;97519.34;110203;1241;71443;-64
2023/07/16 03:51:44;;;;;;;6.30;5.70;;;;;;;15.74;100.00;97525.18;110175;1244;69332;-64
2023/07/16 03:54:16;;;;;;;7.60;5.80;;;;;;;15.83;100.00;97528.75;110234;1242;69251;-66
2023/07/16 03:56:47;;;;;;;6.90;6.20;;;;;;;15.91;100.00;97532.27;110272;1242;59753;-66
2023/07/16 03:59:17;;;;;;;7.20;6.20;;;;;;;15.99;100.00;97531.83;110275;1241;59683;-66
2023/07/16 04:01:46;;;;;;;7.20;6.50;;;;;;;16.09;100.00;97532.13;110176;1244;70996;-64
2023/07/16 04:04:16;;;;;;;7.00;6.20;;;;;;;16.17;100.00;97531.36;110225;1242;69300;-64
2023/07/16 04:06:46;;;;;;;6.80;5.80;;;;;;;16.26;100.00;97531.17;110196;1242;69260;-65
2023/07/16 04:09:16;;;;;;;6.80;5.80;;;;;;;16.37;100.00;97529.38;110243;1241;59747;-64
2023/07/16 04:11:45;;;;;;;6.00;5.40;;;;;;;16.44;100.00;97530.55;110246;1243;59692;-64
2023/07/16 04:14:15;;;;;;;6.00;5.40;;;;;;;16.54;100.00;97528.95;110310;1242;70745;-64
2023/07/16 04:16:46;;;;;;;6.80;5.40;;;;;;;16.64;100.00;97525.71;110193;1242;68466;-64
2023/07/16 04:19:17;;;;;;;6.10;5.40;;;;;;;16.75;100.00;97530.48;110283;1243;69145;-66
2023/07/16 04:21:47;;;;;;;6.40;5.60;;;;;;;16.84;100.00;97530.16;110307;1241;59681;-65
2023/07/16 04:24:16;;;;;;;;;;;;;;;16.89;100.00;97533.35;110279;1240;59692;-64
2023/07/16 04:26:47;;;;;;;7.50;6.70;;;;;;;16.91;100.00;97533.34;110312;1241;70443;-64
2023/07/16 04:29:17;;;;;;;6.90;5.90;;;;;;;16.97;100.00;97535.00;110247;1242;68403;-63
2023/07/16 04:31:47;;;;;;;7.00;5.50;;;;;;;17.10;100.00;97535.69;110103;1244;69122;-63
2023/07/16 04:34:16;;;;;;;;;;;;;;;17.26;100.00;97535.39;110305;1245;59675;-64
2023/07/16 04:36:47;;;;;;;6.90;5.90;;;;;;;17.39;100.00;97537.16;110312;1242;59743;-64
2023/07/16 04:39:16;;;;;;;6.00;5.30;;;;;;;17.50;100.00;97536.41;110319;1241;71371;-64
2023/07/16 04:41:46;;;;;;;6.00;5.10;;;;;;;17.63;100.00;97537.38;110285;1242;69161;-65
2023/07/16 04:44:15;;;;;;;6.70;5.00;;;;;;;17.76;100.00;97531.83;110269;1241;69934;-64
2023/07/16 04:46:47;;;;;;;6.00;5.20;;;;;;;17.90;100.00;97535.59;110324;1242;59773;-64
2023/07/16 04:49:18;;;;;;;6.40;5.00;;;;;;;18.02;100.00;97535.25;110270;1243;59634;-63
2023/07/16 04:51:47;;;;;;;6.70;5.40;;;;;;;18.14;100.00;97535.98;110294;1240;70501;-64
2023/07/16 04:54:17;;;;;;;5.70;5.10;;;;;;;18.27;100.00;97535.31;110325;1241;67587;-64
2023/07/16 04:56:46;;;;;;;;;;;;;;;18.41;100.00;97533.37;110262;1241;68306;-62
2023/07/16 04:59:16;;;;;;;6.30;5.20;;;;;;;18.54;100.00;97535.56;110335;1242;59696;-66
2023/07/16 05:01:46;;;;;;;6.60;5.60;;;;;;;18.67;100.00;97535.13;110270;1242;59681;-63
2023/07/16 05:04:16;;;;;;;6.60;5.50;;;;;;;18.76;100.00;97544.44;110263;1242;70797;-66
2023/07/16 05:06:46;;;;;;;;;;;;;;;18.90;100.00;97548.64;110360;1241;70158;-64
2023/07/16 05:09:15;;;;;;;5.40;4.60;;;;;;;19.06;100.00;97546.27;110298;1242;69872;-64
2023/07/16 05:11:44;;;;;;;;;;;;;;;19.26;100.00;97548.36;110288;1242;59766;-64
2023/07/16 05:14:14;;;;;;;6.00;4.60;;;;;;;19.54;100.00;97545.92;110256;1242;59682;-64
2023/07/16 05:16:43;;;;;;;5.60;4.90;;;;;;;20.01;100.00;97545.54;110313;1240;70494;-63
2023/07/16 05:19:12;;;;;;;;;;;;;;;20.51;98.84;97547.88;110345;1241;68651;-66
2023/07/16 05:21:42;;;;;;;7.90;4.80;;;;;;;21.00;98.67;97551.38;110286;1241;69171;-63
2023/07/16 05:24:11;;;;;;;5.10;4.60;;;;;;;21.54;93.85;97550.03;110262;1241;59747;-63
2023/07/16 05:26:40;;;;;;;4.40;3.80;;;;;;;22.04;92.17;97548.10;110294;1241;59669;-65
2023/07/16 05:29:09;;;;;;;;;;;;;;;22.64;90.31;97548.44;110253;1241;70705;-65
2023/07/16 05:31:39;;;;;;;4.50;4.10;;;;;;;23.05;83.33;97554.96;110299;1242;69243;-64
2023/07/16 05:34:09;;;;;;;4.30;3.90;;;;;;;23.51;86.41;97553.84;110262;1247;69342;-66
2023/07/16 05:36:38;;;;;;;5.40;4.00;;;;;;;23.83;78.14;97551.75;110244;1242;59692;-65
2023/07/16 05:39:08;;;;;;;5.90;4.20;;;;;;;24.05;77.98;97550.09;110333;1240;59748;-64
2023/07/16 05:41:41;;;;;;;5.00;4.50;;;;;;;24.18;78.45;97546.45;110327;1242;71352;-66
2023/07/16 05:44:11;;;;;;;4.80;4.20;;;;;;;24.16;75.33;97545.73;110234;1242;69824;-64
2023/07/16 05:46:41;;;;;;;4.80;3.70;;;;;;;24.07;77.27;97549.08;110233;1247;69187;-65
2023/07/16 05:49:10;;;;;;;4.80;3.80;;;;;;;23.96;74.98;97550.68;110353;1241;59849;-65
2023/07/16 05:51:39;;;;;;;4.70;3.50;;;;;;;23.97;74.09;97545.96;110269;1242;59614;-66
2023/07/16 05:54:09;;;;;;;4.00;3.60;;;;;;;24.07;75.39;97550.61;110240;1242;70996;-65
2023/07/16 05:56:38;;;;;;;4.80;4.10;;;;;;;24.10;73.74;97547.67;110257;1242;69220;-65
2023/07/16 05:59:07;;;;;;;4.10;3.50;;;;;;;24.12;72.39;97545.26;110275;1242;69302;-65
2023/07/16 06:01:37;;;;;;;4.50;4.10;;;;;;;24.19;74.10;97543.08;110255;1242;59695;-65
2023/07/16 06:04:06;;;;;;;4.30;3.70;;;;;;;24.16;72.06;97538.70;110250;1242;59682;-65
2023/07/16 06:06:36;;;;;;;5.20;4.10;;;;;;;24.14;71.17;97534.96;110217;1240;70915;-65
2023/07/16 06:09:05;;;;;;;;;;;;;;;24.16;71.07;97536.32;110345;1242;69836;-62
2023/07/16 06:11:34;;;;;;;4.10;3.70;;;;;;;24.17;71.72;97538.30;110294;1242;69792;-64
2023/07/16 06:14:04;;;;;;;4.60;3.90;;;;;;;24.42;72.55;97541.22;110198;1241;59689;-63
2023/07/16 06:16:33;;;;;;;4.40;4.00;;;;;;;24.72;73.27;97536.65;110253;1242;59673;-64
2023/07/16 06:19:02;;;;;;;4.40;3.70;;;;;;;25.07;71.56;97546.59;110257;1242;71460;-64
2023/07/16 06:21:32;;;;;;;4.20;3.60;;;;;;;25.41;67.50;97547.23;110247;1241;69785;-64
2023/07/16 06:24:01;;;;;;;4.00;3.50;;;;;;;25.79;67.01;97547.31;110262;1242;69862;-64
2023/07/16 06:26:30;;;;;;;3.90;3.20;;;;;;;26.26;67.53;97545.11;110283;1242;59670;-66
2023/07/16 06:28:59;;;;;;;4.10;3.70;;;;;;;26.68;64.96;97544.75;110247;1242;59675;-64
2023/07/16 06:31:28;;;;;;;3.50;3.10;;;;;;;27.02;63.32;97543.57;110301;1242;72098;-65
2023/07/16 06:33:57;;;;;;;3.50;3.00;;;;;;;27.42;63.62;97542.08;110209;1240;69257;-65
2023/07/16 06:36:27;;;;;;;4.30;3.30;;;;;;;27.86;61.47;97541.39;110232;1240;68569;-65
2023/07/16 06:38:56;;;;;;;4.30;3.00;;;;;;;28.35;62.33;97537.73;110257;1242;59692;-65
2023/07/16 06:41:26;;;;;;;4.40;3.60;;;;;;;28.81;61.07;97538.74;110216;1242;59674;-66
2023/07/16 06:43:55;;;;;;;4.60;3.20;;;;;;;29.01;55.48;97537.38;110240;1242;71987;-66
2023/07/16 06:46:24;;;;;;;3.40;3.00;;;;;;;28.99;53.22;97538.51;110229;1241;68681;-64
2023/07/16 06:48:54;;;;;;;4.80;3.60;;;;;;;29.01;53.47;97533.55;110277;1242;69268;-64
2023/07/16 06:51:23;;;;;;;4.10;3.20;;;;;;;29.18;53.48;97535.52;110186;1242;59667;-65
2023/07/16 06:53:52;;;;;;;4.30;3.70;;;;;;;29.06;52.24;97532.59;110262;1242;59734;-65
2023/07/16 06:56:22;;;;;;;4.90;3.90;;;;;;;29.31;53.34;97530.32;110284;1242;71989;-65
2023/07/16 06:58:51;;;;;;;3.30;3.00;;;;;;;29.30;53.47;97529.33;110268;1242;69785;-66
2023/07/16 07:01:21;;;;;;;4.30;3.30;;;;;;;29.44;52.71;97529.53;110260;1243;69102;-65
2023/07/16 07:03:49;;;;;;;4.10;3.70;;;;;;;29.61;52.58;97534.95;110334;1243;59760;-66
2023/07/16 07:06:19;;;;;;;4.20;3.50;;;;;;;29.43;52.60;97533.77;110138;1245;60114;-65
2023/07/16 07:08:50;;;;;;;5.00;3.80;;;;;;;29.70;52.08;97532.23;110293;1242;71239;-66
2023/07/16 07:11:19;;;;;;;4.00;3.60;;;;;;;29.82;52.05;97537.17;110252;1242;68324;-65
2023/07/16 07:13:50;;;;;;;4.00;3.60;;;;;;;30.01;51.46;97536.60;110288;1241;68560;-65
2023/07/16 07:16:19;;;;;;;4.90;4.00;;;;;;;30.37;51.25;97540.07;110221;1242;59773;-65
2023/07/16 07:18:48;;;;;;;4.50;3.90;;;;;;;30.47;51.10;97540.77;110251;1242;60106;-66
2023/07/16 07:21:17;;;;;;;4.00;3.50;;;;;;;30.78;50.50;97541.31;110301;1242;71915;-66
2023/07/16 07:23:47;;;;;;;4.20;3.70;;;;;;;31.07;49.10;97541.98;110253;1242;69786;-66
2023/07/16 07:26:15;;;;;;;;;;;;;;;31.37;49.11;97547.22;110249;1242;69182;-65
2023/07/16 07:28:45;;;;;;;4.40;3.80;;;;;;;31.26;47.46;97545.05;110222;1242;59770;-65
2023/07/16 07:31:14;;;;;;;4.80;3.90;;;;;;;31.07;48.22;97545.85;110300;1241;59683;-65
2023/07/16 07:33:43;;;;;;;4.90;4.30;;;;;;;31.29;48.16;97547.38;110274;1242;71467;-66
2023/07/16 07:36:12;;;;;;;5.40;4.30;;;;;;;31.69;47.40;97548.02;110291;1241;69302;-65
2023/07/16 07:38:42;;;;;;;4.80;4.30;;;;;;;31.64;47.78;97548.09;110276;1241;70198;-65
2023/07/16 07:41:11;;;;;;;4.70;3.90;;;;;;;31.57;46.50;97544.98;110214;1240;59692;-66
2023/07/16 07:43:40;;;;;;;5.20;4.70;;;;;;;31.02;47.25;97542.13;110268;1242;59676;-66
2023/07/16 07:46:10;;;;;;;5.00;4.20;;;;;;;30.67;47.84;97541.51;110223;1241;71975;-66
2023/07/16 07:48:39;;;;;;;4.60;4.20;;;;;;;30.86;47.70;97543.27;110204;1241;69434;-66
2023/07/16 07:51:08;;;;;;;6.50;4.50;;;;;;;31.17;47.72;97539.90;110213;1242;69241;-66
2023/07/16 07:53:39;;;;;;;7.30;4.60;;;;;;;31.20;48.72;97542.35;110208;1242;59725;-64
2023/07/16 07:56:07;;;;;;;5.00;4.50;;;;;;;31.69;47.72;97553.05;110201;1242;59630;-65
2023/07/16 07:58:37;;;;;;;4.80;4.20;;;;;;;31.97;46.29;97552.20;110262;1241;71955;-65
2023/07/16 08:01:07;;;;;;;4.20;3.80;;;;;;;32.22;45.14;97551.91;110277;1240;68696;-67
2023/07/16 08:03:37;;;;;;;4.80;4.30;;;;;;;32.42;44.81;97554.02;110243;1242;69834;-66
2023/07/16 08:06:06;;;;;;;5.60;4.20;;;;;;;31.75;44.44;97557.15;110229;1242;59678;-67
2023/07/16 08:08:35;;;;;;;3.90;3.20;;;;;;;32.10;44.45;97554.59;110324;1240;59728;-66
2023/07/16 08:11:04;;;;;;;4.80;4.20;;;;;;;32.63;43.99;97551.78;110199;1242;70666;-66
2023/07/16 08:13:34;;;;;;;4.60;4.20;;;;;;;32.34;43.93;97551.02;110272;1241;68468;-66
2023/07/16 08:16:03;;;;;;;5.40;4.50;;;;;;;32.67;44.05;97551.13;110216;1243;69715;-66
2023/07/16 08:18:32;;;;;;;5.00;3.90;;;;;;;32.83;43.76;97552.48;110274;1242;59680;-66
2023/07/16 08:21:01;;;;;;;4.50;4.00;;;;;;;32.52;43.41;97554.20;110250;1242;60124;-67
2023/07/16 08:23:30;;;;;;;4.20;3.80;;;;;;;32.62;43.83;97557.38;110212;1240;72235;-66
2023/07/16 08:25:59;;;;;;;3.80;3.40;;;;;;;32.76;43.08;97550.93;110215;1241;69795;-67
2023/07/16 08:28:28;;;;;;;4.40;4.00;;;;;;;33.13;42.65;97551.58;110167;1241;69871;-66
2023/07/16 08:30:57;;;;;;;5.00;4.00;;;;;;;33.27;41.76;97551.08;110177;1242;59734;-67
2023/07/16 08:33:26;;;;;;;3.60;3.20;;;;;;;33.56;41.51;97546.28;110233;1242;60184;-67
2023/07/16 08:35:58;;;;;;;4.50;4.00;;;;;;;33.44;40.81;97550.20;110213;1242;71329;-67
2023/07/16 08:38:27;;;;;;;4.30;3.80;;;;;;;33.59;41.32;97554.29;110206;1242;69816;-66
2023/07/16 08:40:56;;;;;;;4.50;3.50;;;;;;;33.80;41.26;97552.42;110246;1240;69070;-66
2023/07/16 08:43:25;;;;;;;3.80;3.50;;;;;;;33.70;40.99;97546.53;110206;1242;59650;-66
2023/07/16 08:45:55;;;;;;;4.30;3.90;;;;;;;34.01;40.35;97544.11;110218;1242;59702;-66
2023/07/16 08:48:25;;;;;;;4.00;3.60;;;;;;;34.11;40.03;97538.94;110256;1242;71759;-66
2023/07/16 08:50:57;;;;;;;3.80;3.40;;;;;;;33.81;40.02;97534.65;110230;1241;69263;-66
2023/07/16 08:53:26;;;;;;;4.20;3.40;;;;;;;33.95;40.89;97539.02;110252;1240;68507;-65
2023/07/16 08:55:57;;;;;;;4.00;3.30;;;;;;;33.96;39.22;97539.69;110218;1241;59706;-65
2023/07/16 08:58:27;;;;;;;3.50;2.90;;;;;;;33.44;40.09;97536.02;110234;1242;59691;-66
2023/07/16 09:00:56;;;;;;;3.50;2.90;;;;;;;33.87;40.04;97538.72;110267;1241;71687;-67
2023/07/16 09:03:25;;;;;;;4.10;3.70;;;;;;;34.24;40.25;97539.10;110231;1241;69422;-66
2023/07/16 09:05:55;;;;;;;3.70;3.40;;;;;;;34.54;39.83;97536.10;110205;1242;69866;-66
2023/07/16 09:08:28;;;;;;;3.50;3.00;;;;;;;34.76;39.23;97531.56;110283;1241;59672;-66
2023/07/16 09:10:58;;;;;;;3.80;3.40;;;;;;;34.87;38.04;97525.16;110271;1241;59683;-66
2023/07/16 09:13:29;;;;;;;4.10;3.70;;;;;;;35.09;37.45;97529.02;110289;1241;70651;-67
2023/07/16 09:15:58;;;;;;;3.50;3.20;;;;;;;35.15;37.31;97532.30;110270;1242;69219;-67
2023/07/16 09:18:28;;;;;;;3.30;3.00;;;;;;;35.25;37.53;97529.29;110252;1242;70327;-67
2023/07/16 09:21:00;;;;;;;3.90;3.10;;;;;;;35.33;37.49;97530.02;110230;1241;59741;-67
2023/07/16 09:23:30;;;;;;;4.30;3.60;;;;;;;35.50;38.35;97525.77;110228;1242;59734;-66
2023/07/16 09:26:00;;;;;;;3.40;3.10;;;;;;;35.77;37.73;97525.77;110215;1240;70918;-66
2023/07/16 09:28:31;;;;;;;3.60;3.30;;;;;;;35.55;38.11;97528.17;110230;1240;69821;-66
2023/07/16 09:31:06;;;;;;;4.10;3.40;;;;;;;35.74;37.87;97522.55;110260;1246;69272;-66
2023/07/16 09:33:35;;;;;;;3.70;2.90;;;;;;;36.18;36.99;97521.33;110257;1241;59679;-67
2023/07/16 09:36:05;;;;;;;4.20;3.80;;;;;;;36.40;36.28;97517.27;110246;1242;59685;-66
2023/07/16 09:38:35;;;;;;;4.20;3.50;;;;;;;36.56;35.96;97516.38;110215;1241;71337;-66
2023/07/16 09:41:06;;;;;;;3.60;3.30;;;;;;;36.67;34.90;97517.17;110243;1240;69219;-66
2023/07/16 09:43:35;;;;;;;3.80;2.90;;;;;;;36.26;35.23;97522.61;110271;1242;69259;-67
2023/07/16 09:46:04;;;;;;;3.70;3.30;;;;;;;36.37;34.73;97516.30;110255;1242;59630;-66
2023/07/16 09:48:34;;;;;;;3.70;3.30;;;;;;;36.02;35.14;97516.48;110257;1241;59716;-67
2023/07/16 09:51:04;;;;;;;3.30;2.90;;;;;;;36.47;34.71;97507.80;110266;1240;71392;-67
2023/07/16 09:53:34;;;;;;;3.90;3.50;;;;;;;36.50;34.34;97510.52;110294;1242;68488;-67
2023/07/16 09:56:05;;;;;;;3.10;2.70;;;;;;;36.28;35.28;97515.17;110290;1241;69983;-67
2023/07/16 09:58:34;;;;;;;4.20;3.30;;;;;;;36.25;34.45;97509.02;110309;1240;59682;-66
2023/07/16 10:01:04;;;;;;;3.60;3.20;;;;;;;36.67;35.02;97506.49;110242;1242;59677;-67
2023/07/16 10:03:34;;;;;;;3.80;3.20;;;;;;;36.43;35.03;97508.11;110233;1240;71981;-67
2023/07/16 10:06:08;;;;;;;4.10;3.70;;;;;;;36.85;34.80;97504.08;110222;1242;68488;-67
2023/07/16 10:08:37;;;;;;;3.50;3.20;;;;;;;36.56;33.99;97495.84;110240;1242;69304;-66
2023/07/16 10:11:16;;;;;;;4.00;3.40;;;;;;;36.86;34.16;97494.17;110216;1242;59662;-66
2023/07/16 10:13:50;;;;;;;4.10;3.70;;;;;;;36.70;33.92;97492.20;110269;1242;59710;-66
2023/07/16 10:16:23;;;;;;;5.50;4.10;;;;;;;36.57;33.41;97493.81;110273;1240;71946;-66
2023/07/16 10:18:53;;;;;;;4.30;3.90;;;;;;;35.78;34.46;97497.77;110273;1240;69800;-66
2023/07/16 10:21:24;;;;;;;3.70;3.40;;;;;;;35.31;33.98;97501.98;110221;1242;69241;-66
2023/07/16 10:23:59;;;;;;;4.40;4.00;;;;;;;34.64;34.86;97494.32;110210;1240;59715;-65
2023/07/16 10:26:29;;;;;;;4.60;3.70;;;;;;;34.23;36.77;97498.23;110282;1242;59792;-65
2023/07/16 10:28:58;;;;;;;4.10;3.70;;;;;;;34.44;36.70;97496.03;110288;1242;72007;-66
2023/07/16 10:31:27;;;;;;;4.80;4.10;;;;;;;34.11;35.88;97494.67;110201;1242;69216;-66
2023/07/16 10:34:07;;;;;;;4.40;3.90;;;;;;;33.88;35.77;97493.30;110171;1242;69765;-65
2023/07/16 10:36:40;;;;;;;4.40;4.00;;;;;;;34.27;35.70;97492.95;110208;1242;59689;-65
2023/07/16 10:39:09;;;;;;;4.30;3.70;;;;;;;34.54;34.57;97489.32;110211;1242;59688;-65
2023/07/16 10:41:38;;;;;;;4.00;3.70;;;;;;;34.57;35.07;97486.72;110160;1244;71345;-65
2023/07/16 10:44:13;;;;;;;4.10;3.70;;;;;;;34.89;35.17;97483.46;110148;1245;69742;-66
2023/07/16 10:46:42;;;;;;;3.70;3.40;;;;;;;35.37;35.25;97481.94;110163;1241;69305;-68
2023/07/16 10:49:11;;;;;;;4.50;3.80;;;;;;;35.58;34.88;97480.36;110094;1244;59917;-65
2023/07/16 10:51:40;;;;;;;5.20;4.60;;;;;;;35.48;34.93;97478.81;110072;1245;59692;-65
2023/07/16 10:54:09;;;;;;;4.50;4.10;;;;;;;34.85;35.19;97481.31;110147;1241;71351;-66
2023/07/16 10:56:38;;;;;;;3.50;3.20;;;;;;;34.21;35.99;97478.15;110188;1244;69808;-67
2023/07/16 10:59:11;;;;;;;4.60;3.90;;;;;;;34.27;36.92;97471.85;110113;1245;69900;-65
2023/07/16 11:01:39;;;;;;;4.50;4.10;;;;;;;34.59;35.54;97468.11;110152;1243;59757;-66
2023/07/16 11:04:09;;;;;;;4.50;3.70;;;;;;;35.02;34.98;97472.55;110171;1241;59754;-65
2023/07/16 11:06:38;;;;;;;5.80;4.00;;;;;;;35.19;34.33;97470.52;110174;1241;71973;-66
2023/07/16 11:09:11;;;;;;;5.00;4.20;;;;;;;35.41;34.34;97471.52;110178;1241;68915;-66
2023/07/16 11:11:40;;;;;;;5.30;4.20;;;;;;;35.23;34.37;97466.36;110168;1243;69266;-66
2023/07/16 11:14:09;;;;;;;4.70;4.20;;;;;;;35.02;35.13;97467.73;110125;1241;59679;-67
2023/07/16 11:16:38;;;;;;;4.40;3.90;;;;;;;35.22;33.81;97466.09;110157;1241;59686;-65
2023/07/16 11:19:07;;;;;;;4.20;3.80;;;;;;;35.30;33.48;97463.81;110169;1241;71484;-66
2023/07/16 11:21:37;;;;;;;4.50;4.10;;;;;;;35.31;32.71;97458.27;110109;1244;69983;-67
2023/07/16 11:24:10;;;;;;;4.10;3.70;;;;;;;34.87;33.17;97459.23;110154;1241;69906;-67
2023/07/16 11:26:40;;;;;;;5.40;3.90;;;;;;;34.85;34.84;97456.56;110133;1244;59734;-66
2023/07/16 11:29:15;;;;;;;4.40;3.90;;;;;;;34.69;35.12;97455.14;110180;1241;59643;-65
2023/07/16 11:31:49;;;;;;;5.20;4.50;;;;;;;34.53;35.34;97448.23;110161;1243;71428;-65
2023/07/16 11:34:22;;;;;;;5.10;4.60;;;;;;;34.49;35.30;97447.84;110174;1241;69172;-65
2023/07/16 11:36:51;;;;;;;4.40;4.00;;;;;;;34.40;35.46;97448.27;110159;1241;69851;-65
2023/07/16 11:39:20;;;;;;;4.10;3.70;;;;;;;34.25;35.77;97451.05;110111;1244;59709;-65
2023/07/16 11:41:58;;;;;;;4.30;3.90;;;;;;;34.55;35.48;97451.33;110257;1241;59627;-66